South Platte, Nebraska
Current Conditions -  °F | °C
As of 3:53 AM on Saturday 29 Nov 2014 (Local Time) from KHSI Reporting Station
Clear Clear  
Wind Chill: 38°   Ceiling: Unl
Heat Index: 42°   Visibility: 10mi
Dew Point: 19°   Wind: 7mph
Humidity: 40%   Direction: 250°WSW
Pressure: 29.59"   Gusts: NA
Location:  40.7545°N, 98.3738°W
Report Text: KHSI 290953Z AUTO 25006KT 10SM CLR 06/M07 A2959 RMK AO2 SLP015 T00561072
Loading
Personal Weather Stations






























Interactive Weather Map New forecast layout! Learn more

10-Day Weather Forecast

Advertisements
Track Severe Weather on mobile